Portada
METAR-TAF:

METAR-TAF

Aeroports :

Weno, Micronèsia

latitud: 07-28N, longitud: 151-51E, altitud: 3 m

Observació

L'informe es va fer fa 45 minuts, a les 15:50 UTC
Vent 5 kt amb direcció variable
Temperatura 27°C
Humitat 89%
Pressió 1011 hPa
Visibilitat: 24.1 km
Escasses núvols a una alçada de 1400 ft
Núvols disperses a una alçada de 12000 ft
Cel cobert a una alçada de 29000 ft

METAR: PTKK 211550Z VRB05KT 15SM FEW014 SCT120 OVC290 27/25 A2986 RMK SLP111 T02710249

Hora: 02:35 (16:35 UTC)

Pronòstic

L'informe es va fer fa 5 hores i 7 minuts, a les 11:28 UTC
Pronòstic vàlid del 21 a les 12 UTC al 22 a les 12 UTC
Vent 9 kt del Nord-Est
Visibilitat: 10 km
Escasses núvols a una alçada de 1600 ft
Núvols disperses a una alçada de 4000 ft
Núvols disperses a una alçada de 12000 ft
xàfecs en les proximitats

TAF: PTKK 211128Z 2112/2212 04009KT P6SM VCSH FEW016 SCT040 SCT120

Observacions i pronòstics meteorològics de més de 4000 aeroports (METAR i TAF).

Les estacions disponibles són els punts grocs i vermells al mapa.

Posi el ratolí al punt desitjat per veure el nom de l'estació.

Feu clic per veure les observacions i els pronòstics meteorològics.

Per canviar el mapa: feu clic els botons verds amb una creu de color negre per apropar; al botó verd amb un guió per allunyar la imatge; o en les fletxes verdes per a mapes adjacents.


METAR-TAF: